sensor_id;sensor_type;location;lat;lon;timestamp;P1;durP1;ratioP1;P2;durP2;ratioP2
70342;SDS011;57767;42.068;24.752;2023-12-07T00:00:49;16.55;;;13.77;;
70342;SDS011;57767;42.068;24.752;2023-12-07T00:01:51;16.13;;;13.93;;
70342;SDS011;57767;42.068;24.752;2023-12-07T00:02:53;17.05;;;13.82;;
70342;SDS011;57767;42.068;24.752;2023-12-07T00:03:55;16.80;;;14.85;;
70342;SDS011;57767;42.068;24.752;2023-12-07T00:04:56;17.27;;;14.55;;
70342;SDS011;57767;42.068;24.752;2023-12-07T00:05:58;17.70;;;14.02;;
70342;SDS011;57767;42.068;24.752;2023-12-07T00:07:00;16.05;;;14.18;;
70342;SDS011;57767;42.068;24.752;2023-12-07T00:08:02;18.25;;;13.90;;
70342;SDS011;57767;42.068;24.752;2023-12-07T00:09:04;18.48;;;15.02;;
70342;SDS011;57767;42.068;24.752;2023-12-07T00:10:06;17.55;;;15.23;;
70342;SDS011;57767;42.068;24.752;2023-12-07T00:11:08;17.75;;;15.27;;
70342;SDS011;57767;42.068;24.752;2023-12-07T00:12:10;17.88;;;14.10;;
70342;SDS011;57767;42.068;24.752;2023-12-07T00:13:12;19.52;;;16.13;;
70342;SDS011;57767;42.068;24.752;2023-12-07T00:14:13;22.55;;;17.35;;
70342;SDS011;57767;42.068;24.752;2023-12-07T00:15:15;34.35;;;26.00;;
70342;SDS011;57767;42.068;24.752;2023-12-07T00:16:17;44.70;;;31.65;;
70342;SDS011;57767;42.068;24.752;2023-12-07T00:17:19;28.45;;;22.65;;
70342;SDS011;57767;42.068;24.752;2023-12-07T00:18:21;19.52;;;15.73;;
70342;SDS011;57767;42.068;24.752;2023-12-07T00:19:23;13.80;;;12.05;;
70342;SDS011;57767;42.068;24.752;2023-12-07T00:20:24;12.77;;;11.07;;
70342;SDS011;57767;42.068;24.752;2023-12-07T00:21:26;14.98;;;12.18;;
70342;SDS011;57767;42.068;24.752;2023-12-07T00:22:28;12.48;;;10.95;;
70342;SDS011;57767;42.068;24.752;2023-12-07T00:23:30;12.63;;;10.73;;
70342;SDS011;57767;42.068;24.752;2023-12-07T00:24:32;12.50;;;10.20;;
70342;SDS011;57767;42.068;24.752;2023-12-07T00:25:33;11.10;;;9.60;;
70342;SDS011;57767;42.068;24.752;2023-12-07T00:26:35;11.32;;;10.00;;
70342;SDS011;57767;42.068;24.752;2023-12-07T00:27:37;12.15;;;10.00;;
70342;SDS011;57767;42.068;24.752;2023-12-07T00:28:39;11.18;;;8.93;;
70342;SDS011;57767;42.068;24.752;2023-12-07T00:29:41;10.48;;;8.98;;
70342;SDS011;57767;42.068;24.752;2023-12-07T00:30:43;10.23;;;9.18;;
70342;SDS011;57767;42.068;24.752;2023-12-07T00:31:44;11.57;;;9.90;;
70342;SDS011;57767;42.068;24.752;2023-12-07T00:32:46;12.48;;;10.30;;
70342;SDS011;57767;42.068;24.752;2023-12-07T00:33:48;12.38;;;10.27;;
70342;SDS011;57767;42.068;24.752;2023-12-07T00:34:49;11.88;;;10.18;;
70342;SDS011;57767;42.068;24.752;2023-12-07T00:35:51;12.95;;;10.50;;
70342;SDS011;57767;42.068;24.752;2023-12-07T00:36:53;13.73;;;11.57;;
70342;SDS011;57767;42.068;24.752;2023-12-07T00:37:55;12.55;;;10.65;;
70342;SDS011;57767;42.068;24.752;2023-12-07T00:38:57;15.23;;;11.32;;
70342;SDS011;57767;42.068;24.752;2023-12-07T00:39:59;15.30;;;13.13;;
70342;SDS011;57767;42.068;24.752;2023-12-07T00:41:01;14.18;;;11.43;;
70342;SDS011;57767;42.068;24.752;2023-12-07T00:42:03;12.60;;;11.07;;
70342;SDS011;57767;42.068;24.752;2023-12-07T00:43:04;13.23;;;11.30;;
70342;SDS011;57767;42.068;24.752;2023-12-07T00:44:06;14.82;;;11.93;;
70342;SDS011;57767;42.068;24.752;2023-12-07T00:45:08;14.40;;;11.52;;
70342;SDS011;57767;42.068;24.752;2023-12-07T00:46:10;12.77;;;11.18;;
70342;SDS011;57767;42.068;24.752;2023-12-07T00:47:12;12.30;;;10.88;;
70342;SDS011;57767;42.068;24.752;2023-12-07T00:48:14;12.45;;;10.68;;
70342;SDS011;57767;42.068;24.752;2023-12-07T00:49:16;12.73;;;9.85;;
70342;SDS011;57767;42.068;24.752;2023-12-07T00:50:18;11.50;;;10.27;;
70342;SDS011;57767;42.068;24.752;2023-12-07T00:51:20;12.30;;;10.55;;
70342;SDS011;57767;42.068;24.752;2023-12-07T00:52:21;13.30;;;11.73;;
70342;SDS011;57767;42.068;24.752;2023-12-07T00:53:24;14.35;;;10.98;;
70342;SDS011;57767;42.068;24.752;2023-12-07T00:54:25;12.50;;;9.80;;
70342;SDS011;57767;42.068;24.752;2023-12-07T00:55:27;10.77;;;9.68;;
70342;SDS011;57767;42.068;24.752;2023-12-07T00:56:29;10.63;;;9.52;;
70342;SDS011;57767;42.068;24.752;2023-12-07T00:57:31;10.65;;;8.70;;
70342;SDS011;57767;42.068;24.752;2023-12-07T00:58:32;11.43;;;9.65;;
70342;SDS011;57767;42.068;24.752;2023-12-07T00:59:34;10.52;;;9.07;;
70342;SDS011;57767;42.068;24.752;2023-12-07T01:00:36;15.90;;;14.20;;
70342;SDS011;57767;42.068;24.752;2023-12-07T01:01:38;19.70;;;17.60;;
70342;SDS011;57767;42.068;24.752;2023-12-07T01:02:40;16.50;;;12.93;;
70342;SDS011;57767;42.068;24.752;2023-12-07T01:03:42;12.45;;;10.43;;
70342;SDS011;57767;42.068;24.752;2023-12-07T01:04:44;14.48;;;12.48;;
70342;SDS011;57767;42.068;24.752;2023-12-07T01:05:46;23.83;;;18.45;;
70342;SDS011;57767;42.068;24.752;2023-12-07T01:06:48;10.68;;;9.57;;
70342;SDS011;57767;42.068;24.752;2023-12-07T01:07:50;12.35;;;10.40;;
70342;SDS011;57767;42.068;24.752;2023-12-07T01:08:52;12.88;;;9.38;;
70342;SDS011;57767;42.068;24.752;2023-12-07T01:09:54;8.65;;;7.45;;
70342;SDS011;57767;42.068;24.752;2023-12-07T01:10:55;7.82;;;7.03;;
70342;SDS011;57767;42.068;24.752;2023-12-07T01:11:57;9.02;;;7.47;;
70342;SDS011;57767;42.068;24.752;2023-12-07T01:12:59;9.88;;;8.00;;
70342;SDS011;57767;42.068;24.752;2023-12-07T01:14:01;11.02;;;9.43;;
70342;SDS011;57767;42.068;24.752;2023-12-07T01:15:03;11.70;;;10.00;;
70342;SDS011;57767;42.068;24.752;2023-12-07T01:16:06;10.57;;;8.85;;
70342;SDS011;57767;42.068;24.752;2023-12-07T01:17:08;11.30;;;7.88;;
70342;SDS011;57767;42.068;24.752;2023-12-07T01:18:10;8.93;;;7.60;;
70342;SDS011;57767;42.068;24.752;2023-12-07T01:19:11;10.10;;;7.50;;
70342;SDS011;57767;42.068;24.752;2023-12-07T01:20:16;8.57;;;7.78;;
70342;SDS011;57767;42.068;24.752;2023-12-07T01:21:18;9.60;;;8.15;;
70342;SDS011;57767;42.068;24.752;2023-12-07T01:22:21;10.10;;;9.00;;
70342;SDS011;57767;42.068;24.752;2023-12-07T01:23:23;9.88;;;8.80;;
70342;SDS011;57767;42.068;24.752;2023-12-07T01:24:24;11.93;;;9.20;;
70342;SDS011;57767;42.068;24.752;2023-12-07T01:25:26;11.18;;;10.00;;
70342;SDS011;57767;42.068;24.752;2023-12-07T01:26:28;11.80;;;10.15;;
70342;SDS011;57767;42.068;24.752;2023-12-07T01:27:30;11.00;;;9.85;;
70342;SDS011;57767;42.068;24.752;2023-12-07T01:28:32;10.55;;;9.50;;
70342;SDS011;57767;42.068;24.752;2023-12-07T01:29:35;11.10;;;8.05;;
70342;SDS011;57767;42.068;24.752;2023-12-07T01:30:37;9.68;;;8.52;;
70342;SDS011;57767;42.068;24.752;2023-12-07T01:31:38;10.23;;;9.10;;
70342;SDS011;57767;42.068;24.752;2023-12-07T01:32:41;9.30;;;7.90;;
70342;SDS011;57767;42.068;24.752;2023-12-07T01:33:43;8.43;;;7.55;;
70342;SDS011;57767;42.068;24.752;2023-12-07T01:34:45;9.32;;;8.32;;
70342;SDS011;57767;42.068;24.752;2023-12-07T01:35:47;8.07;;;7.28;;
70342;SDS011;57767;42.068;24.752;2023-12-07T01:36:48;8.40;;;7.60;;
70342;SDS011;57767;42.068;24.752;2023-12-07T01:37:50;7.75;;;6.95;;
70342;SDS011;57767;42.068;24.752;2023-12-07T01:38:52;8.90;;;7.13;;
70342;SDS011;57767;42.068;24.752;2023-12-07T01:39:54;7.85;;;7.05;;
70342;SDS011;57767;42.068;24.752;2023-12-07T01:40:56;8.77;;;6.85;;
70342;SDS011;57767;42.068;24.752;2023-12-07T01:41:57;7.85;;;6.72;;
70342;SDS011;57767;42.068;24.752;2023-12-07T01:42:59;7.00;;;6.25;;
70342;SDS011;57767;42.068;24.752;2023-12-07T01:44:02;8.23;;;6.65;;
70342;SDS011;57767;42.068;24.752;2023-12-07T01:45:05;8.63;;;6.63;;
70342;SDS011;57767;42.068;24.752;2023-12-07T01:46:08;6.85;;;6.15;;
70342;SDS011;57767;42.068;24.752;2023-12-07T01:47:10;7.40;;;6.38;;
70342;SDS011;57767;42.068;24.752;2023-12-07T01:48:12;7.88;;;6.50;;
70342;SDS011;57767;42.068;24.752;2023-12-07T01:49:14;7.38;;;5.65;;
70342;SDS011;57767;42.068;24.752;2023-12-07T01:50:17;7.63;;;6.25;;
70342;SDS011;57767;42.068;24.752;2023-12-07T01:51:25;7.50;;;6.15;;
70342;SDS011;57767;42.068;24.752;2023-12-07T01:52:27;7.15;;;6.45;;
70342;SDS011;57767;42.068;24.752;2023-12-07T01:53:30;6.03;;;5.43;;
70342;SDS011;57767;42.068;24.752;2023-12-07T01:54:32;6.38;;;5.53;;
70342;SDS011;57767;42.068;24.752;2023-12-07T01:55:35;6.72;;;6.03;;
70342;SDS011;57767;42.068;24.752;2023-12-07T01:56:38;6.85;;;5.88;;
70342;SDS011;57767;42.068;24.752;2023-12-07T01:57:40;6.40;;;5.78;;
70342;SDS011;57767;42.068;24.752;2023-12-07T01:58:44;8.93;;;5.85;;
70342;SDS011;57767;42.068;24.752;2023-12-07T01:59:46;6.72;;;6.03;;
70342;SDS011;57767;42.068;24.752;2023-12-07T02:00:49;7.43;;;6.72;;
70342;SDS011;57767;42.068;24.752;2023-12-07T02:01:51;8.32;;;7.38;;
70342;SDS011;57767;42.068;24.752;2023-12-07T02:02:53;9.55;;;7.25;;
70342;SDS011;57767;42.068;24.752;2023-12-07T02:03:55;8.77;;;7.63;;
70342;SDS011;57767;42.068;24.752;2023-12-07T02:04:57;8.27;;;7.18;;
70342;SDS011;57767;42.068;24.752;2023-12-07T02:05:59;8.57;;;7.68;;
70342;SDS011;57767;42.068;24.752;2023-12-07T02:07:02;8.57;;;7.68;;
70342;SDS011;57767;42.068;24.752;2023-12-07T02:08:05;8.63;;;7.75;;
70342;SDS011;57767;42.068;24.752;2023-12-07T02:09:07;9.15;;;7.43;;
70342;SDS011;57767;42.068;24.752;2023-12-07T02:10:10;10.13;;;8.35;;
70342;SDS011;57767;42.068;24.752;2023-12-07T02:11:12;11.77;;;8.32;;
70342;SDS011;57767;42.068;24.752;2023-12-07T02:12:14;9.40;;;8.40;;
70342;SDS011;57767;42.068;24.752;2023-12-07T02:13:16;9.85;;;8.77;;
70342;SDS011;57767;42.068;24.752;2023-12-07T02:14:18;9.82;;;8.32;;
70342;SDS011;57767;42.068;24.752;2023-12-07T02:15:20;9.13;;;8.23;;
70342;SDS011;57767;42.068;24.752;2023-12-07T02:18:57;9.77;;;8.02;;
70342;SDS011;57767;42.068;24.752;2023-12-07T02:20:31;9.70;;;8.70;;
70342;SDS011;57767;42.068;24.752;2023-12-07T02:21:47;9.77;;;8.77;;
70342;SDS011;57767;42.068;24.752;2023-12-07T02:23:01;10.32;;;9.32;;
70342;SDS011;57767;42.068;24.752;2023-12-07T02:24:06;10.43;;;9.30;;
70342;SDS011;57767;42.068;24.752;2023-12-07T02:25:10;9.98;;;8.98;;
70342;SDS011;57767;42.068;24.752;2023-12-07T02:26:12;9.23;;;8.30;;
70342;SDS011;57767;42.068;24.752;2023-12-07T02:27:16;12.77;;;9.18;;
70342;SDS011;57767;42.068;24.752;2023-12-07T02:28:18;11.00;;;9.88;;
70342;SDS011;57767;42.068;24.752;2023-12-07T02:29:20;11.27;;;9.82;;
70342;SDS011;57767;42.068;24.752;2023-12-07T02:30:22;11.00;;;9.80;;
70342;SDS011;57767;42.068;24.752;2023-12-07T02:31:24;11.25;;;10.15;;
70342;SDS011;57767;42.068;24.752;2023-12-07T02:32:26;11.50;;;10.38;;
70342;SDS011;57767;42.068;24.752;2023-12-07T02:33:27;13.40;;;11.95;;
70342;SDS011;57767;42.068;24.752;2023-12-07T02:34:30;12.23;;;10.68;;
70342;SDS011;57767;42.068;24.752;2023-12-07T02:35:32;17.95;;;13.10;;
70342;SDS011;57767;42.068;24.752;2023-12-07T02:36:34;16.55;;;14.55;;
70342;SDS011;57767;42.068;24.752;2023-12-07T02:37:49;16.73;;;13.50;;
70342;SDS011;57767;42.068;24.752;2023-12-07T02:38:52;18.35;;;14.70;;
70342;SDS011;57767;42.068;24.752;2023-12-07T02:39:57;17.45;;;14.57;;
70342;SDS011;57767;42.068;24.752;2023-12-07T02:40:59;18.10;;;14.85;;
70342;SDS011;57767;42.068;24.752;2023-12-07T02:42:03;19.50;;;15.07;;
70342;SDS011;57767;42.068;24.752;2023-12-07T02:43:07;18.73;;;14.73;;
70342;SDS011;57767;42.068;24.752;2023-12-07T02:44:09;15.77;;;13.60;;
70342;SDS011;57767;42.068;24.752;2023-12-07T02:45:11;20.27;;;14.70;;
70342;SDS011;57767;42.068;24.752;2023-12-07T02:46:14;15.02;;;13.48;;
70342;SDS011;57767;42.068;24.752;2023-12-07T02:47:16;16.73;;;14.05;;
70342;SDS011;57767;42.068;24.752;2023-12-07T02:48:19;17.80;;;13.75;;
70342;SDS011;57767;42.068;24.752;2023-12-07T02:49:22;20.15;;;15.05;;
70342;SDS011;57767;42.068;24.752;2023-12-07T02:50:23;18.83;;;14.60;;
70342;SDS011;57767;42.068;24.752;2023-12-07T02:51:25;17.65;;;14.18;;
70342;SDS011;57767;42.068;24.752;2023-12-07T02:52:27;17.65;;;14.30;;
70342;SDS011;57767;42.068;24.752;2023-12-07T02:53:30;20.17;;;14.88;;
70342;SDS011;57767;42.068;24.752;2023-12-07T02:54:32;18.55;;;15.20;;
70342;SDS011;57767;42.068;24.752;2023-12-07T02:55:34;19.65;;;15.32;;
70342;SDS011;57767;42.068;24.752;2023-12-07T02:56:36;17.65;;;14.23;;
70342;SDS011;57767;42.068;24.752;2023-12-07T02:57:38;17.38;;;13.98;;
70342;SDS011;57767;42.068;24.752;2023-12-07T02:58:39;17.73;;;13.57;;
70342;SDS011;57767;42.068;24.752;2023-12-07T02:59:42;16.17;;;13.00;;
70342;SDS011;57767;42.068;24.752;2023-12-07T03:00:43;14.73;;;12.98;;
70342;SDS011;57767;42.068;24.752;2023-12-07T03:01:45;13.80;;;12.05;;
70342;SDS011;57767;42.068;24.752;2023-12-07T03:02:47;14.55;;;12.45;;
70342;SDS011;57767;42.068;24.752;2023-12-07T03:03:49;15.40;;;12.43;;
70342;SDS011;57767;42.068;24.752;2023-12-07T03:04:51;15.55;;;13.20;;
70342;SDS011;57767;42.068;24.752;2023-12-07T03:05:52;15.10;;;12.93;;
70342;SDS011;57767;42.068;24.752;2023-12-07T03:06:54;16.33;;;14.02;;
70342;SDS011;57767;42.068;24.752;2023-12-07T03:07:56;15.65;;;13.98;;
70342;SDS011;57767;42.068;24.752;2023-12-07T03:08:58;15.57;;;13.82;;
70342;SDS011;57767;42.068;24.752;2023-12-07T03:10:00;15.60;;;13.88;;
70342;SDS011;57767;42.068;24.752;2023-12-07T03:11:02;16.20;;;13.75;;
70342;SDS011;57767;42.068;24.752;2023-12-07T03:12:04;15.70;;;13.73;;
70342;SDS011;57767;42.068;24.752;2023-12-07T03:13:08;16.80;;;14.75;;
70342;SDS011;57767;42.068;24.752;2023-12-07T03:14:10;15.93;;;14.00;;
70342;SDS011;57767;42.068;24.752;2023-12-07T03:15:11;14.60;;;13.07;;
70342;SDS011;57767;42.068;24.752;2023-12-07T03:16:14;16.08;;;14.23;;
70342;SDS011;57767;42.068;24.752;2023-12-07T03:17:16;16.80;;;14.00;;
70342;SDS011;57767;42.068;24.752;2023-12-07T03:18:18;16.92;;;15.05;;
70342;SDS011;57767;42.068;24.752;2023-12-07T03:19:20;16.17;;;14.35;;
70342;SDS011;57767;42.068;24.752;2023-12-07T03:20:22;11.60;;;10.43;;
70342;SDS011;57767;42.068;24.752;2023-12-07T03:21:24;12.00;;;10.77;;
70342;SDS011;57767;42.068;24.752;2023-12-07T03:22:25;10.25;;;9.15;;
70342;SDS011;57767;42.068;24.752;2023-12-07T03:23:28;10.02;;;8.77;;
70342;SDS011;57767;42.068;24.752;2023-12-07T03:24:30;10.75;;;9.65;;
70342;SDS011;57767;42.068;24.752;2023-12-07T03:25:31;11.40;;;10.30;;
70342;SDS011;57767;42.068;24.752;2023-12-07T03:26:33;11.02;;;9.82;;
70342;SDS011;57767;42.068;24.752;2023-12-07T03:27:35;11.70;;;10.50;;
70342;SDS011;57767;42.068;24.752;2023-12-07T03:28:37;11.48;;;10.23;;
70342;SDS011;57767;42.068;24.752;2023-12-07T03:29:39;14.55;;;11.13;;
70342;SDS011;57767;42.068;24.752;2023-12-07T03:30:41;12.95;;;10.93;;
70342;SDS011;57767;42.068;24.752;2023-12-07T03:31:42;11.50;;;10.30;;
70342;SDS011;57767;42.068;24.752;2023-12-07T03:32:44;12.38;;;10.48;;
70342;SDS011;57767;42.068;24.752;2023-12-07T03:33:46;12.82;;;11.45;;
70342;SDS011;57767;42.068;24.752;2023-12-07T03:34:47;11.35;;;10.25;;
70342;SDS011;57767;42.068;24.752;2023-12-07T03:35:50;12.25;;;10.57;;
70342;SDS011;57767;42.068;24.752;2023-12-07T03:36:52;12.13;;;10.93;;
70342;SDS011;57767;42.068;24.752;2023-12-07T03:37:54;13.95;;;10.35;;
70342;SDS011;57767;42.068;24.752;2023-12-07T03:38:55;13.60;;;11.68;;
70342;SDS011;57767;42.068;24.752;2023-12-07T03:39:57;12.50;;;11.18;;
70342;SDS011;57767;42.068;24.752;2023-12-07T03:40:59;11.52;;;10.32;;
70342;SDS011;57767;42.068;24.752;2023-12-07T03:42:01;9.85;;;8.85;;
70342;SDS011;57767;42.068;24.752;2023-12-07T03:43:03;11.27;;;9.32;;
70342;SDS011;57767;42.068;24.752;2023-12-07T03:44:06;12.05;;;10.05;;
70342;SDS011;57767;42.068;24.752;2023-12-07T03:45:08;10.85;;;8.40;;
70342;SDS011;57767;42.068;24.752;2023-12-07T03:46:10;9.85;;;8.40;;
70342;SDS011;57767;42.068;24.752;2023-12-07T03:47:12;10.85;;;7.88;;
70342;SDS011;57767;42.068;24.752;2023-12-07T03:48:13;10.60;;;8.07;;
70342;SDS011;57767;42.068;24.752;2023-12-07T03:49:15;11.27;;;9.07;;
70342;SDS011;57767;42.068;24.752;2023-12-07T03:50:17;10.52;;;9.13;;
70342;SDS011;57767;42.068;24.752;2023-12-07T03:51:19;13.02;;;9.43;;
70342;SDS011;57767;42.068;24.752;2023-12-07T03:52:20;10.52;;;9.43;;
70342;SDS011;57767;42.068;24.752;2023-12-07T03:53:23;13.68;;;11.30;;
70342;SDS011;57767;42.068;24.752;2023-12-07T03:54:24;12.77;;;10.57;;
70342;SDS011;57767;42.068;24.752;2023-12-07T03:55:26;12.70;;;10.70;;
70342;SDS011;57767;42.068;24.752;2023-12-07T03:56:28;14.45;;;11.07;;
70342;SDS011;57767;42.068;24.752;2023-12-07T03:57:31;13.50;;;10.32;;
70342;SDS011;57767;42.068;24.752;2023-12-07T03:58:32;12.80;;;10.40;;
70342;SDS011;57767;42.068;24.752;2023-12-07T03:59:35;12.43;;;10.73;;
70342;SDS011;57767;42.068;24.752;2023-12-07T04:00:38;11.75;;;10.02;;
70342;SDS011;57767;42.068;24.752;2023-12-07T04:01:39;10.60;;;9.50;;
70342;SDS011;57767;42.068;24.752;2023-12-07T04:02:41;14.52;;;10.35;;
70342;SDS011;57767;42.068;24.752;2023-12-07T04:03:43;12.25;;;10.18;;
70342;SDS011;57767;42.068;24.752;2023-12-07T04:04:45;11.25;;;9.55;;
70342;SDS011;57767;42.068;24.752;2023-12-07T04:05:46;11.52;;;10.18;;
70342;SDS011;57767;42.068;24.752;2023-12-07T04:06:49;13.45;;;11.50;;
70342;SDS011;57767;42.068;24.752;2023-12-07T04:07:50;12.45;;;11.15;;
70342;SDS011;57767;42.068;24.752;2023-12-07T04:08:52;14.13;;;11.82;;
70342;SDS011;57767;42.068;24.752;2023-12-07T04:09:54;16.85;;;12.07;;
70342;SDS011;57767;42.068;24.752;2023-12-07T04:10:56;16.60;;;11.65;;
70342;SDS011;57767;42.068;24.752;2023-12-07T04:11:57;15.18;;;12.07;;
70342;SDS011;57767;42.068;24.752;2023-12-07T04:12:59;14.80;;;12.07;;
70342;SDS011;57767;42.068;24.752;2023-12-07T04:14:01;14.65;;;11.65;;
70342;SDS011;57767;42.068;24.752;2023-12-07T04:15:02;15.75;;;13.02;;
70342;SDS011;57767;42.068;24.752;2023-12-07T04:16:05;15.93;;;12.27;;
70342;SDS011;57767;42.068;24.752;2023-12-07T04:17:07;18.10;;;12.30;;
70342;SDS011;57767;42.068;24.752;2023-12-07T04:18:09;14.80;;;11.77;;
70342;SDS011;57767;42.068;24.752;2023-12-07T04:19:10;14.60;;;12.13;;
70342;SDS011;57767;42.068;24.752;2023-12-07T04:20:12;14.40;;;12.07;;
70342;SDS011;57767;42.068;24.752;2023-12-07T04:21:17;16.60;;;12.90;;
70342;SDS011;57767;42.068;24.752;2023-12-07T04:22:19;15.25;;;12.38;;
70342;SDS011;57767;42.068;24.752;2023-12-07T04:23:21;19.17;;;13.30;;
70342;SDS011;57767;42.068;24.752;2023-12-07T04:24:23;18.05;;;14.27;;
70342;SDS011;57767;42.068;24.752;2023-12-07T04:25:25;16.75;;;13.55;;
70342;SDS011;57767;42.068;24.752;2023-12-07T04:26:26;17.73;;;13.20;;
70342;SDS011;57767;42.068;24.752;2023-12-07T04:27:28;20.20;;;14.23;;
70342;SDS011;57767;42.068;24.752;2023-12-07T04:28:30;16.23;;;13.05;;
70342;SDS011;57767;42.068;24.752;2023-12-07T04:29:32;15.32;;;11.80;;
70342;SDS011;57767;42.068;24.752;2023-12-07T04:30:33;16.33;;;12.15;;
70342;SDS011;57767;42.068;24.752;2023-12-07T04:31:35;13.90;;;11.63;;
70342;SDS011;57767;42.068;24.752;2023-12-07T04:32:37;15.00;;;11.52;;
70342;SDS011;57767;42.068;24.752;2023-12-07T04:33:40;15.25;;;11.48;;
70342;SDS011;57767;42.068;24.752;2023-12-07T04:34:43;13.82;;;11.15;;
70342;SDS011;57767;42.068;24.752;2023-12-07T04:35:44;13.75;;;10.32;;
70342;SDS011;57767;42.068;24.752;2023-12-07T04:36:46;11.27;;;10.07;;
70342;SDS011;57767;42.068;24.752;2023-12-07T04:37:48;12.90;;;10.50;;
70342;SDS011;57767;42.068;24.752;2023-12-07T04:38:49;13.05;;;10.73;;
70342;SDS011;57767;42.068;24.752;2023-12-07T04:39:51;12.43;;;10.43;;
70342;SDS011;57767;42.068;24.752;2023-12-07T04:40:53;12.32;;;10.57;;
70342;SDS011;57767;42.068;24.752;2023-12-07T04:41:55;12.25;;;10.63;;
70342;SDS011;57767;42.068;24.752;2023-12-07T04:42:57;12.23;;;9.98;;
70342;SDS011;57767;42.068;24.752;2023-12-07T04:43:58;11.85;;;10.32;;
70342;SDS011;57767;42.068;24.752;2023-12-07T04:45:00;11.07;;;9.63;;
70342;SDS011;57767;42.068;24.752;2023-12-07T04:46:02;11.60;;;9.43;;
70342;SDS011;57767;42.068;24.752;2023-12-07T04:47:05;10.68;;;9.40;;
70342;SDS011;57767;42.068;24.752;2023-12-07T04:48:06;10.43;;;8.73;;
70342;SDS011;57767;42.068;24.752;2023-12-07T04:49:09;10.05;;;8.73;;
70342;SDS011;57767;42.068;24.752;2023-12-07T04:50:11;9.95;;;8.68;;
70342;SDS011;57767;42.068;24.752;2023-12-07T04:51:13;10.25;;;8.57;;
70342;SDS011;57767;42.068;24.752;2023-12-07T04:52:15;10.50;;;7.72;;
70342;SDS011;57767;42.068;24.752;2023-12-07T04:53:16;8.85;;;7.90;;
70342;SDS011;57767;42.068;24.752;2023-12-07T04:54:18;9.65;;;8.60;;
70342;SDS011;57767;42.068;24.752;2023-12-07T04:55:20;10.10;;;7.72;;
70342;SDS011;57767;42.068;24.752;2023-12-07T04:56:22;9.10;;;7.82;;
70342;SDS011;57767;42.068;24.752;2023-12-07T04:57:24;8.60;;;7.70;;
70342;SDS011;57767;42.068;24.752;2023-12-07T04:58:26;8.77;;;7.70;;
70342;SDS011;57767;42.068;24.752;2023-12-07T04:59:28;9.73;;;8.73;;
70342;SDS011;57767;42.068;24.752;2023-12-07T05:00:30;9.63;;;8.52;;
70342;SDS011;57767;42.068;24.752;2023-12-07T05:01:32;9.00;;;8.15;;
70342;SDS011;57767;42.068;24.752;2023-12-07T05:02:34;10.52;;;9.50;;
70342;SDS011;57767;42.068;24.752;2023-12-07T05:03:35;10.73;;;9.63;;
70342;SDS011;57767;42.068;24.752;2023-12-07T05:04:37;9.82;;;8.55;;
70342;SDS011;57767;42.068;24.752;2023-12-07T05:05:39;9.90;;;8.60;;
70342;SDS011;57767;42.068;24.752;2023-12-07T05:06:41;9.95;;;8.63;;
70342;SDS011;57767;42.068;24.752;2023-12-07T05:07:43;9.85;;;7.82;;
70342;SDS011;57767;42.068;24.752;2023-12-07T05:08:46;8.70;;;7.57;;
70342;SDS011;57767;42.068;24.752;2023-12-07T05:09:48;8.15;;;7.22;;
70342;SDS011;57767;42.068;24.752;2023-12-07T05:10:49;9.20;;;7.15;;
70342;SDS011;57767;42.068;24.752;2023-12-07T05:11:52;7.95;;;7.15;;
70342;SDS011;57767;42.068;24.752;2023-12-07T05:12:54;9.35;;;7.22;;
70342;SDS011;57767;42.068;24.752;2023-12-07T05:13:58;9.18;;;7.60;;
70342;SDS011;57767;42.068;24.752;2023-12-07T05:15:00;10.30;;;7.70;;
70342;SDS011;57767;42.068;24.752;2023-12-07T05:16:01;12.50;;;9.30;;
70342;SDS011;57767;42.068;24.752;2023-12-07T05:17:04;12.65;;;8.25;;
70342;SDS011;57767;42.068;24.752;2023-12-07T05:18:06;13.73;;;8.65;;
70342;SDS011;57767;42.068;24.752;2023-12-07T05:19:08;20.48;;;13.43;;
70342;SDS011;57767;42.068;24.752;2023-12-07T05:20:10;19.63;;;12.90;;
70342;SDS011;57767;42.068;24.752;2023-12-07T05:21:13;16.75;;;11.15;;
70342;SDS011;57767;42.068;24.752;2023-12-07T05:22:15;13.57;;;9.60;;
70342;SDS011;57767;42.068;24.752;2023-12-07T05:23:17;9.82;;;8.30;;
70342;SDS011;57767;42.068;24.752;2023-12-07T05:24:19;12.70;;;9.20;;
70342;SDS011;57767;42.068;24.752;2023-12-07T05:25:21;11.82;;;9.95;;
70342;SDS011;57767;42.068;24.752;2023-12-07T05:26:23;11.48;;;9.38;;
70342;SDS011;57767;42.068;24.752;2023-12-07T05:27:24;12.50;;;11.07;;
70342;SDS011;57767;42.068;24.752;2023-12-07T05:28:26;14.60;;;13.00;;
70342;SDS011;57767;42.068;24.752;2023-12-07T05:29:28;17.55;;;15.75;;
70342;SDS011;57767;42.068;24.752;2023-12-07T05:30:30;16.38;;;14.25;;
70342;SDS011;57767;42.068;24.752;2023-12-07T05:31:31;15.32;;;13.75;;
70342;SDS011;57767;42.068;24.752;2023-12-07T05:32:33;16.35;;;14.55;;
70342;SDS011;57767;42.068;24.752;2023-12-07T05:33:35;17.33;;;15.52;;
70342;SDS011;57767;42.068;24.752;2023-12-07T05:34:36;15.20;;;13.40;;
70342;SDS011;57767;42.068;24.752;2023-12-07T05:35:38;16.27;;;14.15;;
70342;SDS011;57767;42.068;24.752;2023-12-07T05:36:40;14.95;;;13.18;;
70342;SDS011;57767;42.068;24.752;2023-12-07T05:37:42;16.15;;;14.38;;
70342;SDS011;57767;42.068;24.752;2023-12-07T05:38:43;15.85;;;12.95;;
70342;SDS011;57767;42.068;24.752;2023-12-07T05:39:45;14.90;;;13.20;;
70342;SDS011;57767;42.068;24.752;2023-12-07T05:40:47;16.25;;;13.32;;
70342;SDS011;57767;42.068;24.752;2023-12-07T05:41:48;14.30;;;12.52;;
70342;SDS011;57767;42.068;24.752;2023-12-07T05:42:50;15.10;;;13.07;;
70342;SDS011;57767;42.068;24.752;2023-12-07T05:43:52;14.75;;;12.77;;
70342;SDS011;57767;42.068;24.752;2023-12-07T05:44:54;17.33;;;13.43;;
70342;SDS011;57767;42.068;24.752;2023-12-07T05:45:56;14.77;;;13.00;;
70342;SDS011;57767;42.068;24.752;2023-12-07T05:46:57;15.80;;;12.70;;
70342;SDS011;57767;42.068;24.752;2023-12-07T05:47:59;15.13;;;12.98;;
70342;SDS011;57767;42.068;24.752;2023-12-07T05:49:01;14.98;;;13.00;;
70342;SDS011;57767;42.068;24.752;2023-12-07T05:50:03;18.55;;;14.02;;
70342;SDS011;57767;42.068;24.752;2023-12-07T05:51:05;14.65;;;12.50;;
70342;SDS011;57767;42.068;24.752;2023-12-07T05:52:12;19.63;;;17.05;;
70342;SDS011;57767;42.068;24.752;2023-12-07T05:53:14;19.85;;;16.63;;
70342;SDS011;57767;42.068;24.752;2023-12-07T05:54:15;20.70;;;17.23;;
70342;SDS011;57767;42.068;24.752;2023-12-07T05:55:17;20.15;;;17.95;;
70342;SDS011;57767;42.068;24.752;2023-12-07T05:56:19;18.88;;;16.65;;
70342;SDS011;57767;42.068;24.752;2023-12-07T05:57:24;20.60;;;16.60;;
70342;SDS011;57767;42.068;24.752;2023-12-07T05:58:25;18.77;;;16.10;;
70342;SDS011;57767;42.068;24.752;2023-12-07T05:59:27;20.67;;;16.42;;
70342;SDS011;57767;42.068;24.752;2023-12-07T06:00:29;17.05;;;15.25;;
70342;SDS011;57767;42.068;24.752;2023-12-07T06:01:31;17.38;;;15.55;;
70342;SDS011;57767;42.068;24.752;2023-12-07T06:02:33;21.00;;;15.73;;
70342;SDS011;57767;42.068;24.752;2023-12-07T06:03:35;16.50;;;14.35;;
70342;SDS011;57767;42.068;24.752;2023-12-07T06:04:37;17.75;;;15.40;;